Helena — SCGL — position and weather

sailwx.info

Track history (hours):
 
Tides and Currents Weather Stations Pressure Air Temp Water Temp Dewpoint Dewpoint Depression Visibility Wind Speed Wind Dir Waves Ship Positions

Helena

Last reported at 2014-Sep-23 12:34 UTC. Time now 2014-Sep-23 20:29 UTC.
Position N 57°15' E 017°40'.

Length 169 m; draft 6.3 m.

Type: Cargo ship. MMSI: 265145000.

Date/timePositionNaut miles runAvg speedWind from/ knotsBaromVisibWave heightAir tempDewpointWater temp
2014-Sep-23 12:34N 57°15' E 017°40'11713.8
2014-Sep-23 04:04N 55°41' E 015°33'815.4
2014-Sep-23 03:33N 55°37' E 015°21'1515.2
2014-Sep-23 02:33N 55°30' E 014°58'1515.2
2014-Sep-23 01:33N 55°22' E 014°35'1514.9
2014-Sep-23 00:33N 55°10' E 014°19'1514.7
2014-Sep-22 23:33N 55°00' E 013°60'1515.5
2014-Sep-22 22:33N 54°55' E 013°34'1515.3
2014-Sep-22 21:33N 54°50' E 013°09'1514.7
2014-Sep-22 20:33N 54°44' E 012°46'1414.3
2014-Sep-22 19:33N 54°35' E 012°26'1515.1
2014-Sep-22 18:33N 54°24' E 012°09'1515.4
2014-Sep-22 17:33N 54°18' E 011°44'1515.3
2014-Sep-22 16:33N 54°10' E 011°22'9 0.3
2014-Sep-21 11:24N 54°06' E 011°08'1011.9
2014-Sep-21 10:33N 54°12' E 011°22'1313.0
2014-Sep-21 09:33N 54°20' E 011°40'1212.2
2014-Sep-21 08:33N 54°25' E 011°59'1010.4
2014-Sep-21 07:33N 54°32' E 012°13'1211.4
2014-Sep-21 06:33N 54°41' E 012°26'1212.2
2014-Sep-21 05:33N 54°48' E 012°43'1212.4
2014-Sep-21 04:33N 54°52' E 013°04'1312.7
2014-Sep-21 03:33N 54°56' E 013°25'1312.7
2014-Sep-21 02:33N 54°60' E 013°46'1312.7
2014-Sep-21 01:33N 55°05' E 014°06'1313.2
2014-Sep-21 00:33N 55°15' E 014°20'1313.2
2014-Sep-20 23:33N 55°26' E 014°35'1313.1
2014-Sep-20 22:32N 55°33' E 014°55'2512.8
2014-Sep-20 20:33N 55°46' E 015°33'1312.9
2014-Sep-20 19:33N 55°53' E 015°53'1312.6
2014-Sep-20 18:33N 55°58' E 016°13'1313.0
2014-Sep-20 17:33N 56°05' E 016°33'1212.1
2014-Sep-20 16:33N 56°14' E 016°47'1413.0
2014-Sep-20 15:27N 56°28' E 016°54'1112.8
2014-Sep-20 14:33N 56°39' E 016°60'1413.9
2014-Sep-20 13:33N 56°52' E 017°07'1211.8
2014-Sep-20 12:33N 57°04' E 017°12'6 6.5
2014-Sep-20 11:33N 57°10' E 017°15'1313.3
2014-Sep-20 10:33N 57°22' E 017°28'9 8.8
2014-Sep-20 09:33N 57°29' E 017°37'9 9.1
2014-Sep-20 08:33N 57°37' E 017°46'1110.7
2014-Sep-20 07:33N 57°46' E 017°56'1110.9
2014-Sep-20 06:33N 57°55' E 018°07'1715.0
2014-Sep-20 05:26N 58°09' E 018°24'  
2014-Sep-16 15:33N 58°06' E 018°31'1616.3
2014-Sep-16 14:33N 57°52' E 018°15'2016.5
2014-Sep-16 13:22N 57°36' E 017°57'2116.5
2014-Sep-16 12:05N 57°16' E 017°40'916.3
2014-Sep-16 11:33N 57°08' E 017°34'5016.3
2014-Sep-16 08:32N 56°22' E 017°00'1616.2
2014-Sep-16 07:33N 56°07' E 016°50'4715.6
2014-Sep-16 04:33N 55°43' E 015°39'1615.8
2014-Sep-16 03:33N 55°35' E 015°15'1615.5
2014-Sep-16 02:33N 55°27' E 014°51'1515.0
2014-Sep-16 01:33N 55°18' E 014°31'1615.6
2014-Sep-16 00:33N 55°05' E 014°15'1514.7
2014-Sep-15 23:33N 54°58' E 013°53'1514.9
2014-Sep-15 22:33N 54°53' E 013°28'1514.6
2014-Sep-15 21:32N 54°48' E 013°04'1414.2
2014-Sep-15 20:33N 54°43' E 012°41'1414.1
2014-Sep-15 19:33N 54°35' E 012°21'1313.1
2014-Sep-15 18:33N 54°25' E 012°07'1313.4
2014-Sep-15 17:33N 54°19' E 011°46'1514.8
2014-Sep-15 16:33N 54°11' E 011°25'1515.2
2014-Sep-15 15:33N 54°03' E 011°03'10 9.7
2014-Sep-15 14:33N 53°56' E 010°52'14 0.4
2014-Sep-14 06:20N 54°06' E 011°08'1114.3
2014-Sep-14 05:33N 54°13' E 011°24'1414.3
2014-Sep-14 04:33N 54°20' E 011°45'1414.4
2014-Sep-14 03:33N 54°26' E 012°07'1414.0
2014-Sep-14 02:33N 54°39' E 012°19'1514.6
2014-Sep-14 01:32N 54°47' E 012°41'6613.3
2014-Sep-13 20:33N 55°18' E 014°24'1413.5
2014-Sep-13 19:33N 55°27' E 014°40'3213.7
2014-Sep-13 17:15N 55°44' E 015°28'1013.6
2014-Sep-13 16:33N 55°49' E 015°42'1714.0
2014-Sep-13 15:21N 55°57' E 016°08'1113.9
2014-Sep-13 14:33N 56°03' E 016°25'  
Track history (hours):
 
Tides and Currents Weather Stations Pressure Air Temp Water Temp Dewpoint Dewpoint Depression Visibility Wind Speed Wind Dir Waves Ship Positions

Helena

Last reported at 2014-Sep-23 12:34 UTC. Time now 2014-Sep-23 20:29 UTC.
Position N 57°15' E 017°40'.

Length 169 m; draft 6.3 m.

Type: Cargo ship. MMSI: 265145000.

Date/timePositionNaut miles runAvg speedWind from/ knotsBaromVisibWave heightAir tempDewpointWater temp
2014-Sep-23 12:34N 57°15' E 017°40'11713.8
2014-Sep-23 04:04N 55°41' E 015°33'815.4
2014-Sep-23 03:33N 55°37' E 015°21'1515.2
2014-Sep-23 02:33N 55°30' E 014°58'1515.2
2014-Sep-23 01:33N 55°22' E 014°35'1514.9
2014-Sep-23 00:33N 55°10' E 014°19'1514.7
2014-Sep-22 23:33N 55°00' E 013°60'1515.5
2014-Sep-22 22:33N 54°55' E 013°34'1515.3
2014-Sep-22 21:33N 54°50' E 013°09'1514.7
2014-Sep-22 20:33N 54°44' E 012°46'1414.3
2014-Sep-22 19:33N 54°35' E 012°26'1515.1
2014-Sep-22 18:33N 54°24' E 012°09'1515.4
2014-Sep-22 17:33N 54°18' E 011°44'1515.3
2014-Sep-22 16:33N 54°10' E 011°22'9 0.3
2014-Sep-21 11:24N 54°06' E 011°08'1011.9
2014-Sep-21 10:33N 54°12' E 011°22'1313.0
2014-Sep-21 09:33N 54°20' E 011°40'1212.2
2014-Sep-21 08:33N 54°25' E 011°59'1010.4
2014-Sep-21 07:33N 54°32' E 012°13'1211.4
2014-Sep-21 06:33N 54°41' E 012°26'1212.2
2014-Sep-21 05:33N 54°48' E 012°43'1212.4
2014-Sep-21 04:33N 54°52' E 013°04'1312.7
2014-Sep-21 03:33N 54°56' E 013°25'1312.7
2014-Sep-21 02:33N 54°60' E 013°46'1312.7
2014-Sep-21 01:33N 55°05' E 014°06'1313.2
2014-Sep-21 00:33N 55°15' E 014°20'1313.2
2014-Sep-20 23:33N 55°26' E 014°35'1313.1
2014-Sep-20 22:32N 55°33' E 014°55'2512.8
2014-Sep-20 20:33N 55°46' E 015°33'1312.9
2014-Sep-20 19:33N 55°53' E 015°53'1312.6
2014-Sep-20 18:33N 55°58' E 016°13'1313.0
2014-Sep-20 17:33N 56°05' E 016°33'1212.1
2014-Sep-20 16:33N 56°14' E 016°47'1413.0
2014-Sep-20 15:27N 56°28' E 016°54'1112.8
2014-Sep-20 14:33N 56°39' E 016°60'1413.9
2014-Sep-20 13:33N 56°52' E 017°07'1211.8
2014-Sep-20 12:33N 57°04' E 017°12'6 6.5
2014-Sep-20 11:33N 57°10' E 017°15'1313.3
2014-Sep-20 10:33N 57°22' E 017°28'9 8.8
2014-Sep-20 09:33N 57°29' E 017°37'9 9.1
2014-Sep-20 08:33N 57°37' E 017°46'1110.7
2014-Sep-20 07:33N 57°46' E 017°56'1110.9
2014-Sep-20 06:33N 57°55' E 018°07'1715.0
2014-Sep-20 05:26N 58°09' E 018°24'  
2014-Sep-16 15:33N 58°06' E 018°31'1616.3
2014-Sep-16 14:33N 57°52' E 018°15'2016.5
2014-Sep-16 13:22N 57°36' E 017°57'2116.5
2014-Sep-16 12:05N 57°16' E 017°40'916.3
2014-Sep-16 11:33N 57°08' E 017°34'5016.3
2014-Sep-16 08:32N 56°22' E 017°00'1616.2
2014-Sep-16 07:33N 56°07' E 016°50'4715.6
2014-Sep-16 04:33N 55°43' E 015°39'1615.8
2014-Sep-16 03:33N 55°35' E 015°15'1615.5
2014-Sep-16 02:33N 55°27' E 014°51'1515.0
2014-Sep-16 01:33N 55°18' E 014°31'1615.6
2014-Sep-16 00:33N 55°05' E 014°15'1514.7
2014-Sep-15 23:33N 54°58' E 013°53'1514.9
2014-Sep-15 22:33N 54°53' E 013°28'1514.6
2014-Sep-15 21:32N 54°48' E 013°04'1414.2
2014-Sep-15 20:33N 54°43' E 012°41'1414.1
2014-Sep-15 19:33N 54°35' E 012°21'1313.1
2014-Sep-15 18:33N 54°25' E 012°07'1313.4
2014-Sep-15 17:33N 54°19' E 011°46'1514.8
2014-Sep-15 16:33N 54°11' E 011°25'1515.2
2014-Sep-15 15:33N 54°03' E 011°03'10 9.7
2014-Sep-15 14:33N 53°56' E 010°52'14 0.4
2014-Sep-14 06:20N 54°06' E 011°08'1114.3
2014-Sep-14 05:33N 54°13' E 011°24'1414.3
2014-Sep-14 04:33N 54°20' E 011°45'1414.4
2014-Sep-14 03:33N 54°26' E 012°07'1414.0
2014-Sep-14 02:33N 54°39' E 012°19'1514.6
2014-Sep-14 01:32N 54°47' E 012°41'6613.3
2014-Sep-13 20:33N 55°18' E 014°24'1413.5
2014-Sep-13 19:33N 55°27' E 014°40'3213.7
2014-Sep-13 17:15N 55°44' E 015°28'1013.6
2014-Sep-13 16:33N 55°49' E 015°42'1714.0
2014-Sep-13 15:21N 55°57' E 016°08'1113.9
2014-Sep-13 14:33N 56°03' E 016°25'  

Dump ship's entire track history